createdAt,value
2023-01-27T00:01:45.214Z,9.80
2023-01-27T00:04:48.099Z,8.85
2023-01-27T00:07:50.914Z,8.75
2023-01-27T00:11:18.416Z,9.38
2023-01-27T00:14:20.975Z,9.02
2023-01-27T00:17:23.617Z,8.30
2023-01-27T00:20:45.118Z,9.50
2023-01-27T00:24:06.551Z,9.30
2023-01-27T00:27:10.218Z,9.88
2023-01-27T00:30:15.869Z,9.68
2023-01-27T00:33:25.398Z,9.77
2023-01-27T00:36:29.697Z,8.80
2023-01-27T00:39:32.471Z,8.73
2023-01-27T00:42:35.394Z,8.60
2023-01-27T00:45:51.284Z,9.52
2023-01-27T00:48:54.234Z,8.93
2023-01-27T00:51:57.022Z,9.48
2023-01-27T00:54:59.765Z,9.00
2023-01-27T00:58:02.642Z,9.43
2023-01-27T01:01:08.589Z,9.20
2023-01-27T01:04:11.373Z,9.50
2023-01-27T01:07:13.984Z,9.60
2023-01-27T01:10:16.864Z,9.88
2023-01-27T01:13:19.762Z,9.55
2023-01-27T01:16:24.335Z,9.85
2023-01-27T01:19:27.374Z,8.87
2023-01-27T01:22:30.044Z,10.20
2023-01-27T01:25:33.447Z,10.15
2023-01-27T01:28:36.350Z,10.07
2023-01-27T01:31:39.140Z,10.55
2023-01-27T01:34:41.876Z,8.90
2023-01-27T01:37:44.551Z,9.65
2023-01-27T01:40:47.339Z,8.57
2023-01-27T01:43:51.460Z,9.50
2023-01-27T01:46:54.244Z,8.98
2023-01-27T01:49:56.987Z,8.83
2023-01-27T01:53:02.070Z,8.93
2023-01-27T01:56:12.285Z,9.35
2023-01-27T01:59:25.681Z,8.80
2023-01-27T02:02:31.564Z,8.43
2023-01-27T02:05:37.624Z,8.43
2023-01-27T02:08:43.972Z,8.43
2023-01-27T02:11:47.023Z,9.65
2023-01-27T02:14:49.852Z,9.32
2023-01-27T02:17:52.626Z,9.43
2023-01-27T02:20:56.125Z,8.50
2023-01-27T02:24:10.896Z,8.77
2023-01-27T02:27:14.434Z,9.07
2023-01-27T02:30:19.734Z,9.02
2023-01-27T02:33:22.407Z,8.40
2023-01-27T02:36:29.634Z,9.00
2023-01-27T02:39:39.184Z,8.65
2023-01-27T02:42:42.120Z,9.65
2023-01-27T02:45:47.424Z,9.10
2023-01-27T02:48:50.868Z,9.98
2023-01-27T02:51:53.607Z,8.77
2023-01-27T02:54:57.371Z,8.82
2023-01-27T02:58:00.033Z,8.25
2023-01-27T03:01:24.533Z,8.07
2023-01-27T03:04:27.388Z,8.32
2023-01-27T03:07:30.099Z,8.37
2023-01-27T03:10:32.834Z,8.73
2023-01-27T03:13:38.964Z,9.43
2023-01-27T03:17:00.142Z,8.52
2023-01-27T03:20:02.790Z,9.05
2023-01-27T03:23:05.995Z,8.97
2023-01-27T03:26:10.363Z,9.23
2023-01-27T03:29:33.897Z,8.85
2023-01-27T03:32:37.229Z,8.68
2023-01-27T03:36:30.806Z,8.45
2023-01-27T03:39:51.963Z,9.67
2023-01-27T03:43:13.244Z,9.02
2023-01-27T03:46:22.451Z,9.30
2023-01-27T03:49:25.179Z,10.20
2023-01-27T03:52:28.070Z,8.75
2023-01-27T03:55:32.688Z,9.40
2023-01-27T03:58:37.274Z,9.40
2023-01-27T04:01:40.025Z,9.70
2023-01-27T04:05:01.390Z,8.52
2023-01-27T04:08:05.751Z,8.60
2023-01-27T04:11:27.360Z,9.20
2023-01-27T04:14:32.476Z,9.55
2023-01-27T04:17:39.086Z,8.98
2023-01-27T04:20:42.431Z,8.48
2023-01-27T04:23:45.335Z,8.90
2023-01-27T04:26:49.420Z,9.37
2023-01-27T04:29:52.203Z,9.60
2023-01-27T04:32:54.810Z,7.85
2023-01-27T04:35:57.652Z,9.57
2023-01-27T04:39:00.374Z,8.80
2023-01-27T04:42:03.020Z,9.40
2023-01-27T04:45:06.456Z,8.82
2023-01-27T04:48:09.144Z,10.18
2023-01-27T04:51:11.958Z,8.55
2023-01-27T04:54:14.656Z,10.32
2023-01-27T04:57:17.299Z,9.43
2023-01-27T05:00:20.490Z,8.98
2023-01-27T05:03:23.263Z,10.20
2023-01-27T05:06:26.837Z,10.55
2023-01-27T05:09:29.684Z,9.55
2023-01-27T05:12:32.843Z,10.17
2023-01-27T05:15:35.486Z,9.85
2023-01-27T05:18:39.164Z,8.90
2023-01-27T05:21:43.463Z,10.02
2023-01-27T05:24:46.169Z,9.38
2023-01-27T05:27:48.974Z,10.13
2023-01-27T05:30:51.703Z,10.95
2023-01-27T05:33:55.793Z,9.90
2023-01-27T05:36:58.337Z,10.23
2023-01-27T05:40:01.050Z,9.57
2023-01-27T05:43:04.189Z,10.10
2023-01-27T05:46:11.099Z,10.10
2023-01-27T05:49:13.706Z,11.82
2023-01-27T05:52:17.034Z,10.93
2023-01-27T05:55:19.661Z,11.70
2023-01-27T05:58:22.663Z,9.43
2023-01-27T06:01:30.757Z,10.52
2023-01-27T06:04:33.456Z,9.25
2023-01-27T06:07:36.171Z,9.30
2023-01-27T06:10:38.892Z,10.57
2023-01-27T06:13:42.083Z,9.67
2023-01-27T06:16:47.347Z,10.40
2023-01-27T06:19:50.129Z,9.93
2023-01-27T06:22:52.995Z,10.52
2023-01-27T06:25:56.629Z,9.70
2023-01-27T06:28:59.348Z,10.50
2023-01-27T06:32:02.138Z,12.32
2023-01-27T06:35:05.513Z,9.52
2023-01-27T06:38:13.498Z,8.73
2023-01-27T06:41:17.222Z,10.27
2023-01-27T06:44:21.167Z,10.77
2023-01-27T06:47:24.177Z,10.18
2023-01-27T06:50:29.751Z,13.77
2023-01-27T06:53:32.808Z,10.00
2023-01-27T06:56:35.697Z,11.23
2023-01-27T06:59:38.613Z,9.50
2023-01-27T07:02:41.730Z,10.80
2023-01-27T07:05:44.718Z,9.60
2023-01-27T07:08:47.647Z,10.43
2023-01-27T07:11:50.375Z,11.45
2023-01-27T07:14:56.464Z,10.00
2023-01-27T07:18:02.025Z,10.18
2023-01-27T07:21:06.668Z,11.50
2023-01-27T07:24:11.183Z,9.90
2023-01-27T07:27:13.923Z,11.45
2023-01-27T07:30:18.321Z,10.50
2023-01-27T07:33:21.213Z,10.77
2023-01-27T07:36:23.874Z,11.77
2023-01-27T07:39:29.664Z,11.88
2023-01-27T07:42:32.872Z,9.00
2023-01-27T07:45:36.038Z,10.23
2023-01-27T07:48:39.923Z,10.60
2023-01-27T07:51:42.773Z,10.43
2023-01-27T07:54:46.092Z,10.30
2023-01-27T07:57:53.506Z,10.13
2023-01-27T08:00:58.303Z,11.17
2023-01-27T08:04:01.411Z,8.88
2023-01-27T08:07:04.179Z,11.60
2023-01-27T08:10:07.557Z,11.68
2023-01-27T08:13:10.505Z,11.73
2023-01-27T08:16:15.373Z,9.57
2023-01-27T08:19:18.411Z,10.00
2023-01-27T08:22:21.524Z,9.18
2023-01-27T08:25:25.218Z,11.00
2023-01-27T08:28:30.206Z,10.23
2023-01-27T08:31:32.974Z,10.17
2023-01-27T08:34:35.691Z,8.77
2023-01-27T08:37:38.282Z,12.20
2023-01-27T08:40:42.951Z,10.60
2023-01-27T08:43:46.205Z,10.40
2023-01-27T08:46:48.850Z,8.73
2023-01-27T08:49:51.684Z,9.18
2023-01-27T08:52:56.487Z,9.88
2023-01-27T08:56:04.247Z,9.90
2023-01-27T08:59:14.289Z,11.25
2023-01-27T09:02:17.157Z,13.00
2023-01-27T09:05:22.617Z,11.10
2023-01-27T09:08:26.920Z,11.88
2023-01-27T09:11:29.792Z,11.82
2023-01-27T09:14:32.618Z,13.48
2023-01-27T09:17:35.407Z,12.03
2023-01-27T09:20:39.620Z,9.98
2023-01-27T09:23:42.364Z,11.23
2023-01-27T09:26:51.012Z,12.35
2023-01-27T09:29:53.954Z,10.60
2023-01-27T09:33:00.235Z,11.87
2023-01-27T09:36:11.904Z,9.40
2023-01-27T09:39:20.090Z,11.50
2023-01-27T09:42:51.165Z,8.82
2023-01-27T09:46:16.000Z,11.18
2023-01-27T09:49:26.634Z,10.33
2023-01-27T09:52:50.828Z,13.13
2023-01-27T09:56:16.086Z,10.38
2023-01-27T10:00:01.862Z,11.82
2023-01-27T10:03:35.394Z,12.25
2023-01-27T10:06:48.986Z,10.83
2023-01-27T10:10:20.187Z,10.77
2023-01-27T10:13:57.343Z,12.23
2023-01-27T10:17:21.524Z,12.98
2023-01-27T10:20:38.193Z,9.40
2023-01-27T10:23:43.843Z,14.33
2023-01-27T10:26:54.129Z,12.60
2023-01-27T10:30:08.967Z,12.20
2023-01-27T10:33:28.621Z,10.90
2023-01-27T10:37:04.406Z,11.45
2023-01-27T10:40:31.147Z,9.47
2023-01-27T10:44:12.068Z,10.73
2023-01-27T10:47:45.929Z,11.65
2023-01-27T10:51:28.640Z,14.05
2023-01-27T10:54:38.528Z,9.25
2023-01-27T10:58:16.230Z,11.83
2023-01-27T11:01:42.976Z,12.70
2023-01-27T11:05:09.693Z,11.05
2023-01-27T11:08:37.055Z,10.38
2023-01-27T11:12:24.266Z,10.35
2023-01-27T11:15:34.089Z,15.10
2023-01-27T11:18:38.892Z,9.90
2023-01-27T11:21:43.095Z,13.18
2023-01-27T11:24:49.950Z,11.15
2023-01-27T11:28:15.414Z,12.90
2023-01-27T11:31:40.564Z,12.00
2023-01-27T11:34:57.678Z,10.05
2023-01-27T11:38:14.528Z,13.43
2023-01-27T11:41:18.166Z,10.13
2023-01-27T11:44:27.831Z,11.77
2023-01-27T11:47:36.923Z,12.47
2023-01-27T11:50:42.109Z,11.80
2023-01-27T11:53:46.759Z,10.32
2023-01-27T11:56:50.362Z,10.90
2023-01-27T12:00:07.531Z,11.88
2023-01-27T12:03:13.071Z,12.93
2023-01-27T12:06:45.438Z,13.52
2023-01-27T12:09:52.480Z,11.77
2023-01-27T12:12:57.793Z,13.20
2023-01-27T12:16:04.671Z,11.25
2023-01-27T12:19:24.959Z,11.57
2023-01-27T12:22:32.836Z,16.55
2023-01-27T12:25:50.674Z,13.45
2023-01-27T12:28:54.449Z,14.05
2023-01-27T12:31:59.571Z,11.40
2023-01-27T12:35:03.075Z,11.87
2023-01-27T12:38:21.273Z,12.38
2023-01-27T12:41:29.452Z,13.65
2023-01-27T12:44:47.748Z,12.90
2023-01-27T12:47:59.246Z,13.57
2023-01-27T12:51:14.036Z,11.87
2023-01-27T12:54:28.243Z,11.45
2023-01-27T12:57:33.292Z,15.40
2023-01-27T13:00:36.258Z,16.52
2023-01-27T13:03:42.246Z,13.45
2023-01-27T13:06:56.612Z,10.47
2023-01-27T13:10:06.440Z,12.30
2023-01-27T13:13:19.554Z,11.25
2023-01-27T13:16:29.686Z,11.68
2023-01-27T13:19:44.725Z,13.15
2023-01-27T13:22:51.238Z,14.13
2023-01-27T13:26:09.154Z,13.07
2023-01-27T13:29:21.648Z,10.82
2023-01-27T13:32:34.999Z,15.82
2023-01-27T13:35:54.449Z,22.75
2023-01-27T13:39:07.215Z,23.90
2023-01-27T13:42:44.079Z,18.42
2023-01-27T13:46:02.664Z,28.08
2023-01-27T13:49:13.671Z,31.50
2023-01-27T13:52:16.503Z,25.27
2023-01-27T13:56:03.012Z,31.97
2023-01-27T13:59:19.950Z,28.27
2023-01-27T14:02:47.289Z,28.80
2023-01-27T14:06:14.469Z,26.20
2023-01-27T14:09:40.682Z,24.08
2023-01-27T14:12:56.826Z,25.77
2023-01-27T14:16:20.136Z,25.13
2023-01-27T14:19:37.936Z,25.33
2023-01-27T14:22:40.918Z,20.95
2023-01-27T14:26:02.038Z,37.47
2023-01-27T14:29:10.701Z,29.13
2023-01-27T14:32:19.158Z,42.97
2023-01-27T14:36:18.963Z,29.15
2023-01-27T14:39:42.539Z,39.13
2023-01-27T14:43:11.879Z,37.15
2023-01-27T14:46:37.598Z,26.87
2023-01-27T14:49:46.071Z,33.88
2023-01-27T14:53:12.973Z,34.95
2023-01-27T14:56:39.409Z,31.45
2023-01-27T14:59:55.959Z,33.30
2023-01-27T15:03:17.443Z,25.80
2023-01-27T15:06:58.184Z,35.00
2023-01-27T15:10:09.200Z,29.88
2023-01-27T15:13:30.326Z,29.70
2023-01-27T15:16:58.429Z,31.95
2023-01-27T15:20:11.928Z,24.33
2023-01-27T15:23:40.670Z,28.27
2023-01-27T15:26:44.207Z,29.15
2023-01-27T15:29:47.076Z,24.98
2023-01-27T15:32:49.884Z,26.55
2023-01-27T15:36:27.548Z,23.87
2023-01-27T15:39:41.050Z,29.98
2023-01-27T15:42:55.369Z,27.50
2023-01-27T15:46:19.992Z,22.85
2023-01-27T15:49:38.318Z,29.40
2023-01-27T15:52:46.648Z,24.57
2023-01-27T15:55:53.445Z,26.42
2023-01-27T15:59:06.244Z,25.90
2023-01-27T16:02:25.047Z,22.67
2023-01-27T16:05:37.621Z,24.73
2023-01-27T16:08:53.516Z,21.47
2023-01-27T16:12:06.970Z,24.83
2023-01-27T16:15:15.837Z,20.48
2023-01-27T16:18:24.954Z,24.52
2023-01-27T16:21:47.772Z,24.23
2023-01-27T16:24:58.684Z,24.27
2023-01-27T16:28:07.150Z,20.98
2023-01-27T16:31:30.706Z,25.40
2023-01-27T16:34:41.773Z,22.58
2023-01-27T16:38:20.676Z,20.90
2023-01-27T16:41:29.996Z,20.07
2023-01-27T16:44:41.146Z,19.50
2023-01-27T16:47:47.786Z,21.83
2023-01-27T16:50:53.266Z,21.60
2023-01-27T16:54:00.763Z,25.15
2023-01-27T16:57:07.250Z,20.47
2023-01-27T17:00:23.297Z,22.05
2023-01-27T17:03:37.923Z,21.98
2023-01-27T17:06:43.064Z,21.73
2023-01-27T17:09:54.654Z,20.95
2023-01-27T17:12:57.701Z,19.07
2023-01-27T17:16:03.903Z,23.38
2023-01-27T17:19:31.643Z,20.40
2023-01-27T17:22:39.030Z,21.10
2023-01-27T17:25:42.382Z,20.17
2023-01-27T17:28:47.894Z,22.23
2023-01-27T17:31:51.424Z,18.98
2023-01-27T17:34:57.416Z,23.30
2023-01-27T17:38:15.593Z,20.52
2023-01-27T17:41:24.687Z,21.08
2023-01-27T17:44:28.097Z,19.73
2023-01-27T17:47:31.106Z,18.63
2023-01-27T17:50:38.141Z,16.13
2023-01-27T17:53:43.085Z,18.10
2023-01-27T17:56:47.194Z,21.20
2023-01-27T17:59:53.365Z,18.77
2023-01-27T18:03:19.739Z,17.92
2023-01-27T18:06:32.363Z,18.50
2023-01-27T18:09:51.583Z,18.88
2023-01-27T18:12:55.131Z,16.30
2023-01-27T18:16:16.779Z,17.77
2023-01-27T18:19:23.649Z,17.90
2023-01-27T18:22:26.801Z,18.63
2023-01-27T18:25:30.074Z,17.17
2023-01-27T18:28:36.076Z,18.88
2023-01-27T18:31:49.052Z,17.60
2023-01-27T18:34:58.214Z,18.05
2023-01-27T18:38:24.782Z,16.58
2023-01-27T18:41:31.980Z,14.90
2023-01-27T18:44:36.354Z,16.05
2023-01-27T18:47:39.878Z,14.50
2023-01-27T18:50:48.157Z,16.40
2023-01-27T18:53:54.724Z,18.58
2023-01-27T18:56:58.111Z,17.88
2023-01-27T19:00:01.460Z,13.73
2023-01-27T19:03:12.379Z,16.13
2023-01-27T19:06:17.580Z,15.10
2023-01-27T19:09:21.606Z,16.35
2023-01-27T19:12:25.236Z,15.82
2023-01-27T19:15:34.012Z,14.52
2023-01-27T19:18:39.240Z,15.23
2023-01-27T19:21:42.916Z,14.90
2023-01-27T19:24:47.619Z,16.52
2023-01-27T19:27:54.946Z,13.20
2023-01-27T19:30:59.377Z,14.00
2023-01-27T19:34:03.235Z,13.97
2023-01-27T19:37:16.169Z,15.35
2023-01-27T19:40:25.593Z,12.80
2023-01-27T19:43:30.680Z,13.75
2023-01-27T19:46:35.394Z,14.38
2023-01-27T19:49:39.658Z,12.23
2023-01-27T19:52:44.213Z,13.27
2023-01-27T19:55:49.894Z,13.77
2023-01-27T19:58:54.166Z,14.02
2023-01-27T20:01:58.223Z,14.90
2023-01-27T20:05:01.851Z,15.47
2023-01-27T20:08:05.975Z,13.05
2023-01-27T20:11:36.288Z,15.93
2023-01-27T20:14:40.488Z,14.98
2023-01-27T20:17:44.989Z,15.65
2023-01-27T20:20:49.777Z,16.33
2023-01-27T20:23:54.629Z,13.80
2023-01-27T20:26:59.191Z,13.55
2023-01-27T20:30:03.416Z,15.52
2023-01-27T20:33:08.578Z,12.93
2023-01-27T20:36:15.746Z,14.97
2023-01-27T20:39:19.747Z,13.05
2023-01-27T20:42:24.571Z,13.63
2023-01-27T20:45:32.992Z,13.95
2023-01-27T20:48:37.403Z,14.98
2023-01-27T20:51:41.152Z,17.10
2023-01-27T20:54:45.287Z,14.73
2023-01-27T20:57:50.144Z,14.85
2023-01-27T21:00:54.173Z,14.20
2023-01-27T21:04:00.795Z,14.45
2023-01-27T21:07:05.034Z,15.00
2023-01-27T21:10:09.635Z,14.63
2023-01-27T21:13:14.552Z,14.25
2023-01-27T21:16:18.695Z,14.15
2023-01-27T21:19:21.922Z,12.90
2023-01-27T21:22:24.950Z,13.43
2023-01-27T21:25:29.657Z,13.25
2023-01-27T21:28:34.161Z,13.63
2023-01-27T21:31:37.429Z,13.15
2023-01-27T21:34:41.362Z,14.88
2023-01-27T21:37:44.924Z,13.63
2023-01-27T21:40:50.965Z,11.90
2023-01-27T21:44:12.356Z,13.13
2023-01-27T21:47:18.699Z,13.05
2023-01-27T21:50:21.852Z,12.30
2023-01-27T21:53:26.958Z,13.87
2023-01-27T21:56:29.947Z,12.00
2023-01-27T21:59:34.401Z,12.85
2023-01-27T22:02:38.132Z,14.20
2023-01-27T22:05:41.100Z,13.05
2023-01-27T22:08:43.947Z,14.50
2023-01-27T22:11:46.766Z,12.77
2023-01-27T22:14:50.343Z,12.52
2023-01-27T22:17:53.112Z,13.90
2023-01-27T22:20:56.388Z,15.77
2023-01-27T22:23:59.013Z,13.93
2023-01-27T22:27:01.953Z,12.65
2023-01-27T22:30:05.420Z,12.07
2023-01-27T22:33:08.623Z,12.10
2023-01-27T22:36:12.102Z,12.65
2023-01-27T22:39:16.961Z,11.43
2023-01-27T22:42:19.852Z,11.90
2023-01-27T22:45:22.821Z,12.05
2023-01-27T22:48:25.641Z,11.45
2023-01-27T22:51:28.552Z,12.05
2023-01-27T22:54:31.221Z,12.07
2023-01-27T22:57:33.967Z,11.45
2023-01-27T23:00:39.120Z,10.98
2023-01-27T23:03:41.765Z,11.55
2023-01-27T23:06:44.675Z,12.77
2023-01-27T23:09:47.517Z,12.27
2023-01-27T23:12:50.216Z,11.57
2023-01-27T23:15:53.015Z,11.05
2023-01-27T23:18:55.612Z,12.55
2023-01-27T23:21:58.299Z,11.95
2023-01-27T23:25:00.978Z,12.00
2023-01-27T23:28:03.673Z,12.43
2023-01-27T23:31:11.920Z,11.85
2023-01-27T23:34:14.829Z,12.10
2023-01-27T23:37:17.796Z,10.18
2023-01-27T23:40:20.591Z,10.33
2023-01-27T23:43:23.944Z,12.02
2023-01-27T23:46:26.791Z,11.60
2023-01-27T23:49:29.507Z,11.15
2023-01-27T23:52:36.591Z,10.93
2023-01-27T23:55:39.589Z,10.17
2023-01-27T23:58:43.809Z,10.93
